sensor_id;sensor_type;location;lat;lon;timestamp;temperature;humidity
18225;DHT22;9237;48.590;8.854;2023-05-10T00:00:11;12.60;99.90
18225;DHT22;9237;48.590;8.854;2023-05-10T00:02:38;12.70;99.90
18225;DHT22;9237;48.590;8.854;2023-05-10T00:05:06;12.60;99.90
18225;DHT22;9237;48.590;8.854;2023-05-10T00:07:33;12.60;99.90
18225;DHT22;9237;48.590;8.854;2023-05-10T00:10:00;12.60;99.90
18225;DHT22;9237;48.590;8.854;2023-05-10T00:12:27;12.50;99.90
18225;DHT22;9237;48.590;8.854;2023-05-10T00:14:55;12.50;99.90
18225;DHT22;9237;48.590;8.854;2023-05-10T00:17:21;12.50;99.90
18225;DHT22;9237;48.590;8.854;2023-05-10T00:19:48;12.40;99.90
18225;DHT22;9237;48.590;8.854;2023-05-10T00:22:15;12.40;99.90
18225;DHT22;9237;48.590;8.854;2023-05-10T00:24:42;12.40;99.90
18225;DHT22;9237;48.590;8.854;2023-05-10T00:27:08;12.40;99.90
18225;DHT22;9237;48.590;8.854;2023-05-10T00:29:35;12.40;99.90
18225;DHT22;9237;48.590;8.854;2023-05-10T00:32:04;12.30;99.90
18225;DHT22;9237;48.590;8.854;2023-05-10T00:34:31;12.20;99.90
18225;DHT22;9237;48.590;8.854;2023-05-10T00:36:58;12.20;99.90
18225;DHT22;9237;48.590;8.854;2023-05-10T00:39:25;12.20;99.90
18225;DHT22;9237;48.590;8.854;2023-05-10T00:41:52;12.20;99.90
18225;DHT22;9237;48.590;8.854;2023-05-10T00:44:18;12.20;99.90
18225;DHT22;9237;48.590;8.854;2023-05-10T00:46:46;12.10;99.90
18225;DHT22;9237;48.590;8.854;2023-05-10T00:49:15;12.10;99.90
18225;DHT22;9237;48.590;8.854;2023-05-10T00:51:42;12.10;99.90
18225;DHT22;9237;48.590;8.854;2023-05-10T00:54:11;12.20;99.90
18225;DHT22;9237;48.590;8.854;2023-05-10T00:56:38;12.10;99.90
18225;DHT22;9237;48.590;8.854;2023-05-10T00:59:05;12.10;99.90
18225;DHT22;9237;48.590;8.854;2023-05-10T01:01:32;12.10;99.90
18225;DHT22;9237;48.590;8.854;2023-05-10T01:03:59;12.10;99.90
18225;DHT22;9237;48.590;8.854;2023-05-10T01:06:28;12.00;99.90
18225;DHT22;9237;48.590;8.854;2023-05-10T01:08:55;12.00;99.90
18225;DHT22;9237;48.590;8.854;2023-05-10T01:11:22;11.90;99.90
18225;DHT22;9237;48.590;8.854;2023-05-10T01:13:54;11.90;99.90
18225;DHT22;9237;48.590;8.854;2023-05-10T01:16:22;11.90;99.90
18225;DHT22;9237;48.590;8.854;2023-05-10T01:18:49;11.90;99.90
18225;DHT22;9237;48.590;8.854;2023-05-10T01:21:21;11.80;99.90
18225;DHT22;9237;48.590;8.854;2023-05-10T01:24:09;11.80;99.90
18225;DHT22;9237;48.590;8.854;2023-05-10T01:27:02;11.80;99.90
18225;DHT22;9237;48.590;8.854;2023-05-10T01:29:53;11.80;99.90
18225;DHT22;9237;48.590;8.854;2023-05-10T01:32:33;11.70;99.90
18225;DHT22;9237;48.590;8.854;2023-05-10T01:35:04;11.70;99.90
18225;DHT22;9237;48.590;8.854;2023-05-10T01:37:45;11.70;99.90
18225;DHT22;9237;48.590;8.854;2023-05-10T01:40:17;11.70;99.90
18225;DHT22;9237;48.590;8.854;2023-05-10T01:42:50;11.70;99.90
18225;DHT22;9237;48.590;8.854;2023-05-10T01:45:24;11.70;99.90
18225;DHT22;9237;48.590;8.854;2023-05-10T01:48:02;11.70;99.90
18225;DHT22;9237;48.590;8.854;2023-05-10T01:50:31;11.60;99.90
18225;DHT22;9237;48.590;8.854;2023-05-10T01:53:00;11.60;99.90
18225;DHT22;9237;48.590;8.854;2023-05-10T01:55:32;11.60;99.90
18225;DHT22;9237;48.590;8.854;2023-05-10T01:58:02;11.60;99.90
18225;DHT22;9237;48.590;8.854;2023-05-10T02:00:31;11.60;99.90
18225;DHT22;9237;48.590;8.854;2023-05-10T02:03:00;11.60;99.90
18225;DHT22;9237;48.590;8.854;2023-05-10T02:05:28;11.60;99.90
18225;DHT22;9237;48.590;8.854;2023-05-10T02:07:57;11.60;99.90
18225;DHT22;9237;48.590;8.854;2023-05-10T02:10:24;11.60;99.90
18225;DHT22;9237;48.590;8.854;2023-05-10T02:12:53;11.60;99.90
18225;DHT22;9237;48.590;8.854;2023-05-10T02:15:23;11.60;99.90
18225;DHT22;9237;48.590;8.854;2023-05-10T02:17:50;11.50;99.90
18225;DHT22;9237;48.590;8.854;2023-05-10T02:20:20;11.50;99.90
18225;DHT22;9237;48.590;8.854;2023-05-10T02:22:49;11.40;99.90
18225;DHT22;9237;48.590;8.854;2023-05-10T02:25:18;11.30;99.90
18225;DHT22;9237;48.590;8.854;2023-05-10T02:27:46;11.30;99.90
18225;DHT22;9237;48.590;8.854;2023-05-10T02:30:14;11.20;99.90
18225;DHT22;9237;48.590;8.854;2023-05-10T02:32:43;11.20;99.90
18225;DHT22;9237;48.590;8.854;2023-05-10T02:35:11;11.20;99.90
18225;DHT22;9237;48.590;8.854;2023-05-10T02:37:39;11.20;99.90
18225;DHT22;9237;48.590;8.854;2023-05-10T02:40:08;11.20;99.90
18225;DHT22;9237;48.590;8.854;2023-05-10T02:42:36;11.30;99.90
18225;DHT22;9237;48.590;8.854;2023-05-10T02:45:08;11.30;99.90
18225;DHT22;9237;48.590;8.854;2023-05-10T02:47:36;11.30;99.90
18225;DHT22;9237;48.590;8.854;2023-05-10T02:50:04;11.30;99.90
18225;DHT22;9237;48.590;8.854;2023-05-10T02:52:42;11.30;99.90
18225;DHT22;9237;48.590;8.854;2023-05-10T02:55:14;11.30;99.90
18225;DHT22;9237;48.590;8.854;2023-05-10T02:57:46;11.30;99.90
18225;DHT22;9237;48.590;8.854;2023-05-10T03:00:15;11.30;99.90
18225;DHT22;9237;48.590;8.854;2023-05-10T03:02:41;11.30;99.90
18225;DHT22;9237;48.590;8.854;2023-05-10T03:05:08;11.30;99.90
18225;DHT22;9237;48.590;8.854;2023-05-10T03:07:35;11.30;99.90
18225;DHT22;9237;48.590;8.854;2023-05-10T03:10:05;11.30;99.90
18225;DHT22;9237;48.590;8.854;2023-05-10T03:12:41;11.30;99.90
18225;DHT22;9237;48.590;8.854;2023-05-10T03:15:16;11.40;99.90
18225;DHT22;9237;48.590;8.854;2023-05-10T03:17:48;11.40;99.90
18225;DHT22;9237;48.590;8.854;2023-05-10T03:20:22;11.40;99.90
18225;DHT22;9237;48.590;8.854;2023-05-10T03:22:53;11.40;99.90
18225;DHT22;9237;48.590;8.854;2023-05-10T03:25:23;11.30;99.90
18225;DHT22;9237;48.590;8.854;2023-05-10T03:27:50;11.30;99.90
18225;DHT22;9237;48.590;8.854;2023-05-10T03:30:18;11.30;99.90
18225;DHT22;9237;48.590;8.854;2023-05-10T03:32:45;11.30;99.90
18225;DHT22;9237;48.590;8.854;2023-05-10T03:35:13;11.30;99.90
18225;DHT22;9237;48.590;8.854;2023-05-10T03:37:39;11.30;99.90
18225;DHT22;9237;48.590;8.854;2023-05-10T03:40:07;11.30;99.90
18225;DHT22;9237;48.590;8.854;2023-05-10T03:42:35;11.30;99.90
18225;DHT22;9237;48.590;8.854;2023-05-10T03:45:02;11.30;99.90
18225;DHT22;9237;48.590;8.854;2023-05-10T03:47:29;11.20;99.90
18225;DHT22;9237;48.590;8.854;2023-05-10T03:49:57;11.20;99.90
18225;DHT22;9237;48.590;8.854;2023-05-10T03:52:23;11.30;99.90
18225;DHT22;9237;48.590;8.854;2023-05-10T03:54:50;11.30;99.90
18225;DHT22;9237;48.590;8.854;2023-05-10T03:57:17;11.30;99.90
18225;DHT22;9237;48.590;8.854;2023-05-10T03:59:45;11.20;99.90
18225;DHT22;9237;48.590;8.854;2023-05-10T04:02:12;11.30;99.90
18225;DHT22;9237;48.590;8.854;2023-05-10T04:04:39;11.30;99.90
18225;DHT22;9237;48.590;8.854;2023-05-10T04:07:05;11.30;99.90
18225;DHT22;9237;48.590;8.854;2023-05-10T04:09:32;11.30;99.90
18225;DHT22;9237;48.590;8.854;2023-05-10T04:11:59;11.30;99.90
18225;DHT22;9237;48.590;8.854;2023-05-10T04:14:27;11.30;99.90
18225;DHT22;9237;48.590;8.854;2023-05-10T04:16:55;11.30;99.90
18225;DHT22;9237;48.590;8.854;2023-05-10T04:19:22;11.30;99.90
18225;DHT22;9237;48.590;8.854;2023-05-10T04:21:49;11.40;99.90
18225;DHT22;9237;48.590;8.854;2023-05-10T04:24:16;11.40;99.90
18225;DHT22;9237;48.590;8.854;2023-05-10T04:26:43;11.40;99.90
18225;DHT22;9237;48.590;8.854;2023-05-10T04:29:11;11.40;99.90
18225;DHT22;9237;48.590;8.854;2023-05-10T04:31:37;11.40;99.90
18225;DHT22;9237;48.590;8.854;2023-05-10T04:34:06;11.40;99.90
18225;DHT22;9237;48.590;8.854;2023-05-10T04:36:32;11.50;99.90
18225;DHT22;9237;48.590;8.854;2023-05-10T04:39:01;11.50;99.90
18225;DHT22;9237;48.590;8.854;2023-05-10T04:41:28;11.50;99.90
18225;DHT22;9237;48.590;8.854;2023-05-10T04:43:55;11.50;99.90
18225;DHT22;9237;48.590;8.854;2023-05-10T04:46:22;11.50;99.90
18225;DHT22;9237;48.590;8.854;2023-05-10T04:48:49;11.50;99.90
18225;DHT22;9237;48.590;8.854;2023-05-10T04:51:17;11.50;99.90
18225;DHT22;9237;48.590;8.854;2023-05-10T04:53:43;11.50;99.90
18225;DHT22;9237;48.590;8.854;2023-05-10T04:56:10;11.50;99.90
18225;DHT22;9237;48.590;8.854;2023-05-10T04:58:37;11.50;99.90
18225;DHT22;9237;48.590;8.854;2023-05-10T05:01:07;11.50;99.90
18225;DHT22;9237;48.590;8.854;2023-05-10T05:03:33;11.60;99.90
18225;DHT22;9237;48.590;8.854;2023-05-10T05:06:01;11.50;99.90
18225;DHT22;9237;48.590;8.854;2023-05-10T05:08:29;11.60;99.90
18225;DHT22;9237;48.590;8.854;2023-05-10T05:10:56;11.60;99.90
18225;DHT22;9237;48.590;8.854;2023-05-10T05:13:23;11.60;99.90
18225;DHT22;9237;48.590;8.854;2023-05-10T05:15:50;11.60;99.90
18225;DHT22;9237;48.590;8.854;2023-05-10T05:18:16;11.60;99.90
18225;DHT22;9237;48.590;8.854;2023-05-10T05:20:43;11.50;99.90
18225;DHT22;9237;48.590;8.854;2023-05-10T05:23:10;11.50;99.90
18225;DHT22;9237;48.590;8.854;2023-05-10T05:25:38;11.50;99.90
18225;DHT22;9237;48.590;8.854;2023-05-10T05:28:05;11.60;99.90
18225;DHT22;9237;48.590;8.854;2023-05-10T05:30:31;11.60;99.90
18225;DHT22;9237;48.590;8.854;2023-05-10T05:32:58;11.60;99.90
18225;DHT22;9237;48.590;8.854;2023-05-10T05:35:25;11.60;99.90
18225;DHT22;9237;48.590;8.854;2023-05-10T05:37:52;11.70;99.90
18225;DHT22;9237;48.590;8.854;2023-05-10T05:40:18;11.70;99.90
18225;DHT22;9237;48.590;8.854;2023-05-10T05:42:47;11.70;99.90
18225;DHT22;9237;48.590;8.854;2023-05-10T05:45:13;11.70;99.90
18225;DHT22;9237;48.590;8.854;2023-05-10T05:47:40;11.70;99.90
18225;DHT22;9237;48.590;8.854;2023-05-10T05:50:08;11.70;99.90
18225;DHT22;9237;48.590;8.854;2023-05-10T05:52:35;11.70;99.90
18225;DHT22;9237;48.590;8.854;2023-05-10T05:55:02;11.70;99.90
18225;DHT22;9237;48.590;8.854;2023-05-10T05:57:29;11.80;99.90
18225;DHT22;9237;48.590;8.854;2023-05-10T05:59:57;11.80;99.90
18225;DHT22;9237;48.590;8.854;2023-05-10T06:02:25;11.80;99.90
18225;DHT22;9237;48.590;8.854;2023-05-10T06:04:51;11.90;99.90
18225;DHT22;9237;48.590;8.854;2023-05-10T06:07:18;12.00;99.90
18225;DHT22;9237;48.590;8.854;2023-05-10T06:09:45;12.00;99.90
18225;DHT22;9237;48.590;8.854;2023-05-10T06:12:12;12.10;99.90
18225;DHT22;9237;48.590;8.854;2023-05-10T06:14:39;12.10;99.90
18225;DHT22;9237;48.590;8.854;2023-05-10T06:17:07;12.20;99.90
18225;DHT22;9237;48.590;8.854;2023-05-10T06:19:33;12.40;99.90
18225;DHT22;9237;48.590;8.854;2023-05-10T06:22:01;12.60;99.90
18225;DHT22;9237;48.590;8.854;2023-05-10T06:24:28;12.80;99.90
18225;DHT22;9237;48.590;8.854;2023-05-10T06:26:55;12.90;99.90
18225;DHT22;9237;48.590;8.854;2023-05-10T06:29:21;13.00;99.90
18225;DHT22;9237;48.590;8.854;2023-05-10T06:31:48;13.10;99.90
18225;DHT22;9237;48.590;8.854;2023-05-10T06:34:16;13.20;99.90
18225;DHT22;9237;48.590;8.854;2023-05-10T06:36:43;13.20;99.90
18225;DHT22;9237;48.590;8.854;2023-05-10T06:39:10;13.20;99.90
18225;DHT22;9237;48.590;8.854;2023-05-10T06:41:37;13.20;99.90
18225;DHT22;9237;48.590;8.854;2023-05-10T06:44:04;13.00;99.90
18225;DHT22;9237;48.590;8.854;2023-05-10T06:46:31;12.80;99.90
18225;DHT22;9237;48.590;8.854;2023-05-10T06:48:57;12.70;99.90
18225;DHT22;9237;48.590;8.854;2023-05-10T06:51:26;12.70;99.90
18225;DHT22;9237;48.590;8.854;2023-05-10T06:53:52;12.00;99.90
18225;DHT22;9237;48.590;8.854;2023-05-10T06:56:19;12.60;99.90
18225;DHT22;9237;48.590;8.854;2023-05-10T06:58:46;12.70;99.90
18225;DHT22;9237;48.590;8.854;2023-05-10T07:01:14;12.70;99.90
18225;DHT22;9237;48.590;8.854;2023-05-10T07:03:40;12.80;99.90
18225;DHT22;9237;48.590;8.854;2023-05-10T07:06:07;12.90;99.90
18225;DHT22;9237;48.590;8.854;2023-05-10T07:08:35;13.00;99.90
18225;DHT22;9237;48.590;8.854;2023-05-10T07:11:03;12.90;99.90
18225;DHT22;9237;48.590;8.854;2023-05-10T07:13:30;12.80;99.90
18225;DHT22;9237;48.590;8.854;2023-05-10T07:15:58;12.90;99.90
18225;DHT22;9237;48.590;8.854;2023-05-10T07:18:25;12.90;99.90
18225;DHT22;9237;48.590;8.854;2023-05-10T07:20:52;12.90;99.90
18225;DHT22;9237;48.590;8.854;2023-05-10T07:23:19;13.00;99.90
18225;DHT22;9237;48.590;8.854;2023-05-10T07:25:48;13.10;99.90
18225;DHT22;9237;48.590;8.854;2023-05-10T07:28:17;13.20;99.90
18225;DHT22;9237;48.590;8.854;2023-05-10T07:30:44;13.30;99.90
18225;DHT22;9237;48.590;8.854;2023-05-10T07:33:13;13.40;99.90
18225;DHT22;9237;48.590;8.854;2023-05-10T07:35:39;13.50;99.90
18225;DHT22;9237;48.590;8.854;2023-05-10T07:38:06;13.50;99.90
18225;DHT22;9237;48.590;8.854;2023-05-10T07:40:33;13.60;99.90
18225;DHT22;9237;48.590;8.854;2023-05-10T07:43:01;13.60;99.90
18225;DHT22;9237;48.590;8.854;2023-05-10T07:45:28;13.60;99.90
18225;DHT22;9237;48.590;8.854;2023-05-10T07:47:55;13.80;99.90
18225;DHT22;9237;48.590;8.854;2023-05-10T07:50:21;13.90;99.90
18225;DHT22;9237;48.590;8.854;2023-05-10T07:52:48;13.90;99.90
18225;DHT22;9237;48.590;8.854;2023-05-10T07:55:15;13.90;99.90
18225;DHT22;9237;48.590;8.854;2023-05-10T07:57:42;14.00;99.90
18225;DHT22;9237;48.590;8.854;2023-05-10T08:00:12;14.20;99.90
18225;DHT22;9237;48.590;8.854;2023-05-10T08:02:40;14.30;99.90
18225;DHT22;9237;48.590;8.854;2023-05-10T08:05:07;14.30;99.90
18225;DHT22;9237;48.590;8.854;2023-05-10T08:07:35;14.50;99.90
18225;DHT22;9237;48.590;8.854;2023-05-10T08:10:01;14.70;99.90
18225;DHT22;9237;48.590;8.854;2023-05-10T08:12:28;14.90;99.90
18225;DHT22;9237;48.590;8.854;2023-05-10T08:14:55;15.00;99.90
18225;DHT22;9237;48.590;8.854;2023-05-10T08:17:23;15.10;99.90
18225;DHT22;9237;48.590;8.854;2023-05-10T08:19:50;15.20;99.90
18225;DHT22;9237;48.590;8.854;2023-05-10T08:22:17;15.30;99.90
18225;DHT22;9237;48.590;8.854;2023-05-10T08:24:44;15.10;99.90
18225;DHT22;9237;48.590;8.854;2023-05-10T08:27:10;15.00;99.90
18225;DHT22;9237;48.590;8.854;2023-05-10T08:29:37;15.00;99.90
18225;DHT22;9237;48.590;8.854;2023-05-10T08:32:04;15.00;99.90
18225;DHT22;9237;48.590;8.854;2023-05-10T08:34:32;14.90;99.90
18225;DHT22;9237;48.590;8.854;2023-05-10T08:36:59;15.20;99.90
18225;DHT22;9237;48.590;8.854;2023-05-10T08:39:26;15.40;99.90
18225;DHT22;9237;48.590;8.854;2023-05-10T08:41:54;15.50;99.90
18225;DHT22;9237;48.590;8.854;2023-05-10T08:44:25;15.30;99.90
18225;DHT22;9237;48.590;8.854;2023-05-10T08:46:53;15.40;99.90
18225;DHT22;9237;48.590;8.854;2023-05-10T08:49:21;15.40;99.90
18225;DHT22;9237;48.590;8.854;2023-05-10T08:51:54;15.40;99.90
18225;DHT22;9237;48.590;8.854;2023-05-10T08:54:21;15.50;99.90
18225;DHT22;9237;48.590;8.854;2023-05-10T08:56:48;15.30;99.90
18225;DHT22;9237;48.590;8.854;2023-05-10T08:59:15;15.20;99.90
18225;DHT22;9237;48.590;8.854;2023-05-10T09:01:43;15.30;99.90
18225;DHT22;9237;48.590;8.854;2023-05-10T09:04:11;15.60;99.90
18225;DHT22;9237;48.590;8.854;2023-05-10T09:06:38;15.60;99.90
18225;DHT22;9237;48.590;8.854;2023-05-10T09:09:07;15.60;99.90
18225;DHT22;9237;48.590;8.854;2023-05-10T09:11:34;15.70;99.90
18225;DHT22;9237;48.590;8.854;2023-05-10T09:14:01;15.90;99.90
18225;DHT22;9237;48.590;8.854;2023-05-10T09:16:28;15.80;99.90
18225;DHT22;9237;48.590;8.854;2023-05-10T09:18:55;15.70;99.90
18225;DHT22;9237;48.590;8.854;2023-05-10T09:21:22;15.90;99.90
18225;DHT22;9237;48.590;8.854;2023-05-10T09:23:49;15.80;99.90
18225;DHT22;9237;48.590;8.854;2023-05-10T09:26:22;16.10;99.90
18225;DHT22;9237;48.590;8.854;2023-05-10T09:28:53;16.40;99.90
18225;DHT22;9237;48.590;8.854;2023-05-10T09:31:21;16.40;99.90
18225;DHT22;9237;48.590;8.854;2023-05-10T09:33:48;16.50;99.90
18225;DHT22;9237;48.590;8.854;2023-05-10T09:36:16;16.70;99.90
18225;DHT22;9237;48.590;8.854;2023-05-10T09:38:47;16.80;99.90
18225;DHT22;9237;48.590;8.854;2023-05-10T09:41:20;17.00;99.90
18225;DHT22;9237;48.590;8.854;2023-05-10T09:43:48;17.10;99.90
18225;DHT22;9237;48.590;8.854;2023-05-10T09:46:15;17.60;99.90
18225;DHT22;9237;48.590;8.854;2023-05-10T09:48:43;17.80;99.90
18225;DHT22;9237;48.590;8.854;2023-05-10T09:51:16;17.70;99.90
18225;DHT22;9237;48.590;8.854;2023-05-10T09:53:44;17.60;99.90
18225;DHT22;9237;48.590;8.854;2023-05-10T09:56:11;17.60;99.90
18225;DHT22;9237;48.590;8.854;2023-05-10T09:58:40;17.40;99.90
18225;DHT22;9237;48.590;8.854;2023-05-10T10:01:11;17.40;99.90
18225;DHT22;9237;48.590;8.854;2023-05-10T10:03:42;17.10;99.90
18225;DHT22;9237;48.590;8.854;2023-05-10T10:06:08;16.80;99.90
18225;DHT22;9237;48.590;8.854;2023-05-10T10:08:35;16.60;99.90
18225;DHT22;9237;48.590;8.854;2023-05-10T10:11:02;16.30;99.90
18225;DHT22;9237;48.590;8.854;2023-05-10T10:13:29;16.00;99.90
18225;DHT22;9237;48.590;8.854;2023-05-10T10:15:58;15.70;99.90
18225;DHT22;9237;48.590;8.854;2023-05-10T10:18:26;15.50;99.90
18225;DHT22;9237;48.590;8.854;2023-05-10T10:20:54;15.20;99.90
18225;DHT22;9237;48.590;8.854;2023-05-10T10:23:21;15.00;99.90
18225;DHT22;9237;48.590;8.854;2023-05-10T10:25:49;14.90;99.90
18225;DHT22;9237;48.590;8.854;2023-05-10T10:28:24;14.80;99.90
18225;DHT22;9237;48.590;8.854;2023-05-10T10:30:54;14.30;99.90
18225;DHT22;9237;48.590;8.854;2023-05-10T10:33:38;13.90;99.90
18225;DHT22;9237;48.590;8.854;2023-05-10T10:36:07;13.70;99.90
18225;DHT22;9237;48.590;8.854;2023-05-10T10:41:29;13.50;99.90
18225;DHT22;9237;48.590;8.854;2023-05-10T10:44:25;13.70;99.90
18225;DHT22;9237;48.590;8.854;2023-05-10T10:47:03;13.80;99.90
18225;DHT22;9237;48.590;8.854;2023-05-10T10:49:33;14.00;99.90
18225;DHT22;9237;48.590;8.854;2023-05-10T10:52:31;14.20;99.90
18225;DHT22;9237;48.590;8.854;2023-05-10T10:55:01;14.50;99.90
18225;DHT22;9237;48.590;8.854;2023-05-10T10:57:29;14.70;99.90
18225;DHT22;9237;48.590;8.854;2023-05-10T11:00:26;15.10;99.90
18225;DHT22;9237;48.590;8.854;2023-05-10T11:02:56;15.10;99.90
18225;DHT22;9237;48.590;8.854;2023-05-10T11:05:42;15.00;99.90
18225;DHT22;9237;48.590;8.854;2023-05-10T11:08:12;15.10;99.90
18225;DHT22;9237;48.590;8.854;2023-05-10T11:10:39;15.10;99.90
18225;DHT22;9237;48.590;8.854;2023-05-10T11:13:08;14.90;99.90
18225;DHT22;9237;48.590;8.854;2023-05-10T11:15:37;14.70;99.90
18225;DHT22;9237;48.590;8.854;2023-05-10T11:18:20;14.50;99.90
18225;DHT22;9237;48.590;8.854;2023-05-10T11:20:52;14.70;99.90
18225;DHT22;9237;48.590;8.854;2023-05-10T11:23:19;15.00;99.90
18225;DHT22;9237;48.590;8.854;2023-05-10T11:25:48;15.10;99.90
18225;DHT22;9237;48.590;8.854;2023-05-10T11:28:17;15.60;99.90
18225;DHT22;9237;48.590;8.854;2023-05-10T11:30:44;16.20;99.90
18225;DHT22;9237;48.590;8.854;2023-05-10T11:33:15;16.60;99.90
18225;DHT22;9237;48.590;8.854;2023-05-10T11:35:43;16.80;99.90
18225;DHT22;9237;48.590;8.854;2023-05-10T11:38:12;16.60;99.90
18225;DHT22;9237;48.590;8.854;2023-05-10T11:40:40;16.20;99.90
18225;DHT22;9237;48.590;8.854;2023-05-10T11:43:09;15.70;99.90
18225;DHT22;9237;48.590;8.854;2023-05-10T11:45:37;15.40;99.90
18225;DHT22;9237;48.590;8.854;2023-05-10T11:48:04;15.20;99.90
18225;DHT22;9237;48.590;8.854;2023-05-10T11:50:31;15.10;99.90
18225;DHT22;9237;48.590;8.854;2023-05-10T11:52:58;15.10;99.90
18225;DHT22;9237;48.590;8.854;2023-05-10T11:55:26;15.00;99.90
18225;DHT22;9237;48.590;8.854;2023-05-10T11:57:59;14.90;99.90
18225;DHT22;9237;48.590;8.854;2023-05-10T12:00:26;14.90;99.90
18225;DHT22;9237;48.590;8.854;2023-05-10T12:02:53;14.90;99.90
18225;DHT22;9237;48.590;8.854;2023-05-10T12:05:20;14.80;99.90
18225;DHT22;9237;48.590;8.854;2023-05-10T12:07:47;14.60;99.90
18225;DHT22;9237;48.590;8.854;2023-05-10T12:10:14;14.60;99.90
18225;DHT22;9237;48.590;8.854;2023-05-10T12:12:44;14.60;99.90
18225;DHT22;9237;48.590;8.854;2023-05-10T12:15:17;14.70;99.90
18225;DHT22;9237;48.590;8.854;2023-05-10T12:17:45;14.80;99.90
18225;DHT22;9237;48.590;8.854;2023-05-10T12:20:16;14.90;99.90
18225;DHT22;9237;48.590;8.854;2023-05-10T12:22:45;15.00;99.90
18225;DHT22;9237;48.590;8.854;2023-05-10T12:25:12;15.20;99.90
18225;DHT22;9237;48.590;8.854;2023-05-10T12:27:38;15.10;99.90
18225;DHT22;9237;48.590;8.854;2023-05-10T12:30:08;15.00;99.90
18225;DHT22;9237;48.590;8.854;2023-05-10T12:32:39;14.90;99.90
18225;DHT22;9237;48.590;8.854;2023-05-10T12:35:06;15.00;99.90
18225;DHT22;9237;48.590;8.854;2023-05-10T12:37:33;15.00;99.90
18225;DHT22;9237;48.590;8.854;2023-05-10T12:40:06;15.00;99.90
18225;DHT22;9237;48.590;8.854;2023-05-10T12:42:33;15.10;99.90
18225;DHT22;9237;48.590;8.854;2023-05-10T12:45:01;15.40;99.90
18225;DHT22;9237;48.590;8.854;2023-05-10T12:47:29;15.50;99.90
18225;DHT22;9237;48.590;8.854;2023-05-10T12:49:56;15.60;99.90
18225;DHT22;9237;48.590;8.854;2023-05-10T12:52:23;15.70;99.90
18225;DHT22;9237;48.590;8.854;2023-05-10T12:54:50;15.50;99.90
18225;DHT22;9237;48.590;8.854;2023-05-10T12:57:16;15.40;99.90
18225;DHT22;9237;48.590;8.854;2023-05-10T12:59:43;15.30;99.90
18225;DHT22;9237;48.590;8.854;2023-05-10T13:02:10;15.20;99.90
18225;DHT22;9237;48.590;8.854;2023-05-10T13:04:38;15.20;99.90
18225;DHT22;9237;48.590;8.854;2023-05-10T13:07:05;15.30;99.90
18225;DHT22;9237;48.590;8.854;2023-05-10T13:09:32;15.30;99.90
18225;DHT22;9237;48.590;8.854;2023-05-10T13:11:59;15.40;99.90
18225;DHT22;9237;48.590;8.854;2023-05-10T13:14:26;15.60;99.90
18225;DHT22;9237;48.590;8.854;2023-05-10T13:16:53;15.80;99.90
18225;DHT22;9237;48.590;8.854;2023-05-10T13:19:20;15.80;99.90
18225;DHT22;9237;48.590;8.854;2023-05-10T13:21:48;16.00;99.90
18225;DHT22;9237;48.590;8.854;2023-05-10T13:24:15;16.30;99.90
18225;DHT22;9237;48.590;8.854;2023-05-10T13:26:42;16.50;99.90
18225;DHT22;9237;48.590;8.854;2023-05-10T13:29:09;16.60;99.90
18225;DHT22;9237;48.590;8.854;2023-05-10T13:31:36;16.70;99.90
18225;DHT22;9237;48.590;8.854;2023-05-10T13:34:05;16.60;99.90
18225;DHT22;9237;48.590;8.854;2023-05-10T13:36:31;16.50;99.90
18225;DHT22;9237;48.590;8.854;2023-05-10T13:38:59;16.60;99.90
18225;DHT22;9237;48.590;8.854;2023-05-10T13:41:28;16.90;99.90
18225;DHT22;9237;48.590;8.854;2023-05-10T13:43:55;17.10;99.90
18225;DHT22;9237;48.590;8.854;2023-05-10T13:46:22;17.30;99.90
18225;DHT22;9237;48.590;8.854;2023-05-10T13:48:49;17.20;99.90
18225;DHT22;9237;48.590;8.854;2023-05-10T13:51:15;17.00;99.90
18225;DHT22;9237;48.590;8.854;2023-05-10T13:53:42;17.00;99.90
18225;DHT22;9237;48.590;8.854;2023-05-10T13:56:10;17.30;99.90
18225;DHT22;9237;48.590;8.854;2023-05-10T13:58:37;17.20;99.90
18225;DHT22;9237;48.590;8.854;2023-05-10T14:01:04;17.00;99.90
18225;DHT22;9237;48.590;8.854;2023-05-10T14:03:31;16.90;99.90
18225;DHT22;9237;48.590;8.854;2023-05-10T14:05:58;17.30;99.90
18225;DHT22;9237;48.590;8.854;2023-05-10T14:08:25;17.00;99.90
18225;DHT22;9237;48.590;8.854;2023-05-10T14:10:53;17.20;99.90
18225;DHT22;9237;48.590;8.854;2023-05-10T14:13:23;17.00;99.90
18225;DHT22;9237;48.590;8.854;2023-05-10T14:15:50;16.80;99.90
18225;DHT22;9237;48.590;8.854;2023-05-10T14:18:17;16.70;99.10
18225;DHT22;9237;48.590;8.854;2023-05-10T14:20:43;16.60;99.90
18225;DHT22;9237;48.590;8.854;2023-05-10T14:23:10;16.70;99.90
18225;DHT22;9237;48.590;8.854;2023-05-10T14:25:38;16.90;99.90
18225;DHT22;9237;48.590;8.854;2023-05-10T14:28:05;16.90;99.90
18225;DHT22;9237;48.590;8.854;2023-05-10T14:30:33;16.80;99.90
18225;DHT22;9237;48.590;8.854;2023-05-10T14:33:00;16.80;99.90
18225;DHT22;9237;48.590;8.854;2023-05-10T14:35:27;16.90;98.60
18225;DHT22;9237;48.590;8.854;2023-05-10T14:37:53;17.00;98.60
18225;DHT22;9237;48.590;8.854;2023-05-10T14:40:20;16.90;98.90
18225;DHT22;9237;48.590;8.854;2023-05-10T14:42:47;16.90;97.70
18225;DHT22;9237;48.590;8.854;2023-05-10T14:45:14;16.80;98.10
18225;DHT22;9237;48.590;8.854;2023-05-10T14:47:42;16.80;97.90
18225;DHT22;9237;48.590;8.854;2023-05-10T14:50:09;16.80;98.50
18225;DHT22;9237;48.590;8.854;2023-05-10T14:52:36;17.00;99.60
18225;DHT22;9237;48.590;8.854;2023-05-10T14:55:03;17.20;99.20
18225;DHT22;9237;48.590;8.854;2023-05-10T14:57:30;17.10;97.30
18225;DHT22;9237;48.590;8.854;2023-05-10T14:59:57;17.00;96.30
18225;DHT22;9237;48.590;8.854;2023-05-10T15:02:24;16.90;96.50
18225;DHT22;9237;48.590;8.854;2023-05-10T15:04:52;16.80;97.10
18225;DHT22;9237;48.590;8.854;2023-05-10T15:07:19;16.90;97.30
18225;DHT22;9237;48.590;8.854;2023-05-10T15:09:46;16.90;96.80
18225;DHT22;9237;48.590;8.854;2023-05-10T15:12:12;17.00;96.80
18225;DHT22;9237;48.590;8.854;2023-05-10T15:14:39;16.90;96.60
18225;DHT22;9237;48.590;8.854;2023-05-10T15:17:06;16.90;95.60
18225;DHT22;9237;48.590;8.854;2023-05-10T15:19:33;16.80;96.20
18225;DHT22;9237;48.590;8.854;2023-05-10T15:22:02;16.80;96.50
18225;DHT22;9237;48.590;8.854;2023-05-10T15:24:28;16.90;96.30
18225;DHT22;9237;48.590;8.854;2023-05-10T15:26:55;16.90;95.60
18225;DHT22;9237;48.590;8.854;2023-05-10T15:29:22;16.90;95.60
18225;DHT22;9237;48.590;8.854;2023-05-10T15:31:50;16.90;96.20
18225;DHT22;9237;48.590;8.854;2023-05-10T15:34:17;17.00;96.50
18225;DHT22;9237;48.590;8.854;2023-05-10T15:36:44;17.10;95.50
18225;DHT22;9237;48.590;8.854;2023-05-10T15:39:12;17.10;95.50
18225;DHT22;9237;48.590;8.854;2023-05-10T15:41:39;17.20;95.40
18225;DHT22;9237;48.590;8.854;2023-05-10T15:44:06;17.20;97.40
18225;DHT22;9237;48.590;8.854;2023-05-10T15:46:33;17.30;97.20
18225;DHT22;9237;48.590;8.854;2023-05-10T15:49:00;17.20;95.50
18225;DHT22;9237;48.590;8.854;2023-05-10T15:51:27;17.20;96.20
18225;DHT22;9237;48.590;8.854;2023-05-10T15:53:53;17.10;96.50